sensor_id;sensor_type;location;lat;lon;timestamp;P1;durP1;ratioP1;P2;durP2;ratioP2
26391;SDS011;14572;43.120;1.178;2024-03-08T00:02:24;5.28;;;1.40;;
26391;SDS011;14572;43.120;1.178;2024-03-08T00:04:51;6.75;;;1.50;;
26391;SDS011;14572;43.120;1.178;2024-03-08T00:07:18;3.38;;;0.90;;
26391;SDS011;14572;43.120;1.178;2024-03-08T00:09:45;4.57;;;1.00;;
26391;SDS011;14572;43.120;1.178;2024-03-08T00:12:13;2.03;;;0.90;;
26391;SDS011;14572;43.120;1.178;2024-03-08T00:14:41;3.47;;;1.00;;
26391;SDS011;14572;43.120;1.178;2024-03-08T00:17:10;4.88;;;1.30;;
26391;SDS011;14572;43.120;1.178;2024-03-08T00:19:36;1.58;;;0.82;;
26391;SDS011;14572;43.120;1.178;2024-03-08T00:22:03;2.90;;;1.02;;
26391;SDS011;14572;43.120;1.178;2024-03-08T00:24:30;3.33;;;1.40;;
26391;SDS011;14572;43.120;1.178;2024-03-08T00:26:57;5.85;;;1.42;;
26391;SDS011;14572;43.120;1.178;2024-03-08T00:29:24;1.88;;;1.00;;
26391;SDS011;14572;43.120;1.178;2024-03-08T00:31:53;2.60;;;1.00;;
26391;SDS011;14572;43.120;1.178;2024-03-08T00:34:20;1.75;;;0.73;;
26391;SDS011;14572;43.120;1.178;2024-03-08T00:36:47;1.40;;;0.70;;
26391;SDS011;14572;43.120;1.178;2024-03-08T00:39:15;2.45;;;0.93;;
26391;SDS011;14572;43.120;1.178;2024-03-08T00:41:42;2.33;;;0.88;;
26391;SDS011;14572;43.120;1.178;2024-03-08T00:44:09;4.05;;;1.10;;
26391;SDS011;14572;43.120;1.178;2024-03-08T00:46:36;1.70;;;0.70;;
26391;SDS011;14572;43.120;1.178;2024-03-08T00:49:05;3.22;;;1.00;;
26391;SDS011;14572;43.120;1.178;2024-03-08T00:51:32;1.40;;;0.63;;
26391;SDS011;14572;43.120;1.178;2024-03-08T00:53:59;1.65;;;0.82;;
26391;SDS011;14572;43.120;1.178;2024-03-08T00:56:26;2.67;;;0.63;;
26391;SDS011;14572;43.120;1.178;2024-03-08T00:58:53;1.17;;;0.60;;
26391;SDS011;14572;43.120;1.178;2024-03-08T01:01:20;3.10;;;0.73;;
26391;SDS011;14572;43.120;1.178;2024-03-08T01:03:47;1.05;;;0.70;;
26391;SDS011;14572;43.120;1.178;2024-03-08T01:06:16;3.50;;;0.90;;
26391;SDS011;14572;43.120;1.178;2024-03-08T01:08:43;2.83;;;0.80;;
26391;SDS011;14572;43.120;1.178;2024-03-08T01:11:12;3.53;;;0.65;;
26391;SDS011;14572;43.120;1.178;2024-03-08T01:13:39;2.55;;;0.70;;
26391;SDS011;14572;43.120;1.178;2024-03-08T01:16:08;1.05;;;0.55;;
26391;SDS011;14572;43.120;1.178;2024-03-08T01:18:35;4.03;;;0.50;;
26391;SDS011;14572;43.120;1.178;2024-03-08T01:21:02;1.65;;;0.55;;
26391;SDS011;14572;43.120;1.178;2024-03-08T01:23:31;4.70;;;0.50;;
26391;SDS011;14572;43.120;1.178;2024-03-08T01:25:59;3.28;;;0.57;;
26391;SDS011;14572;43.120;1.178;2024-03-08T01:28:27;2.90;;;0.63;;
26391;SDS011;14572;43.120;1.178;2024-03-08T01:30:54;1.35;;;0.55;;
26391;SDS011;14572;43.120;1.178;2024-03-08T01:33:22;0.38;;;0.30;;
26391;SDS011;14572;43.120;1.178;2024-03-08T01:35:50;1.88;;;0.60;;
26391;SDS011;14572;43.120;1.178;2024-03-08T01:38:17;2.97;;;0.60;;
26391;SDS011;14572;43.120;1.178;2024-03-08T01:40:47;3.22;;;0.60;;
26391;SDS011;14572;43.120;1.178;2024-03-08T01:43:16;3.45;;;1.40;;
26391;SDS011;14572;43.120;1.178;2024-03-08T01:45:47;2.95;;;1.70;;
26391;SDS011;14572;43.120;1.178;2024-03-08T01:48:14;2.72;;;1.08;;
26391;SDS011;14572;43.120;1.178;2024-03-08T01:50:44;1.85;;;1.02;;
26391;SDS011;14572;43.120;1.178;2024-03-08T01:53:12;4.10;;;1.10;;
26391;SDS011;14572;43.120;1.178;2024-03-08T01:55:40;2.42;;;1.20;;
26391;SDS011;14572;43.120;1.178;2024-03-08T01:58:10;7.72;;;1.45;;
26391;SDS011;14572;43.120;1.178;2024-03-08T02:00:40;6.50;;;1.08;;
26391;SDS011;14572;43.120;1.178;2024-03-08T02:03:09;3.35;;;1.23;;
26391;SDS011;14572;43.120;1.178;2024-03-08T02:05:36;5.68;;;1.42;;
26391;SDS011;14572;43.120;1.178;2024-03-08T02:08:06;5.63;;;1.08;;
26391;SDS011;14572;43.120;1.178;2024-03-08T02:10:38;1.92;;;0.90;;
26391;SDS011;14572;43.120;1.178;2024-03-08T02:13:05;3.00;;;1.10;;
26391;SDS011;14572;43.120;1.178;2024-03-08T02:18:18;2.97;;;0.95;;
26391;SDS011;14572;43.120;1.178;2024-03-08T02:20:47;3.85;;;1.00;;
26391;SDS011;14572;43.120;1.178;2024-03-08T02:23:14;1.45;;;0.75;;
26391;SDS011;14572;43.120;1.178;2024-03-08T02:25:41;3.00;;;1.08;;
26391;SDS011;14572;43.120;1.178;2024-03-08T02:28:09;2.75;;;1.05;;
26391;SDS011;14572;43.120;1.178;2024-03-08T02:30:37;4.25;;;1.00;;
26391;SDS011;14572;43.120;1.178;2024-03-08T02:33:04;3.10;;;1.00;;
26391;SDS011;14572;43.120;1.178;2024-03-08T02:35:31;3.88;;;1.00;;
26391;SDS011;14572;43.120;1.178;2024-03-08T02:38:00;4.40;;;1.02;;
26391;SDS011;14572;43.120;1.178;2024-03-08T02:40:28;4.80;;;0.95;;
26391;SDS011;14572;43.120;1.178;2024-03-08T02:42:57;2.33;;;0.90;;
26391;SDS011;14572;43.120;1.178;2024-03-08T02:45:26;1.48;;;0.85;;
26391;SDS011;14572;43.120;1.178;2024-03-08T02:48:14;3.15;;;1.00;;
26391;SDS011;14572;43.120;1.178;2024-03-08T02:50:42;3.30;;;0.90;;
26391;SDS011;14572;43.120;1.178;2024-03-08T02:53:20;2.45;;;1.02;;
26391;SDS011;14572;43.120;1.178;2024-03-08T02:55:47;4.75;;;1.15;;
26391;SDS011;14572;43.120;1.178;2024-03-08T02:58:18;2.63;;;1.10;;
26391;SDS011;14572;43.120;1.178;2024-03-08T03:00:47;6.45;;;1.50;;
26391;SDS011;14572;43.120;1.178;2024-03-08T03:03:15;5.05;;;1.10;;
26391;SDS011;14572;43.120;1.178;2024-03-08T03:05:44;3.78;;;1.10;;
26391;SDS011;14572;43.120;1.178;2024-03-08T03:08:16;3.70;;;0.90;;
26391;SDS011;14572;43.120;1.178;2024-03-08T03:10:47;3.17;;;0.90;;
26391;SDS011;14572;43.120;1.178;2024-03-08T03:13:14;4.25;;;0.80;;
26391;SDS011;14572;43.120;1.178;2024-03-08T03:15:47;3.15;;;0.70;;
26391;SDS011;14572;43.120;1.178;2024-03-08T03:18:14;2.38;;;0.85;;
26391;SDS011;14572;43.120;1.178;2024-03-08T03:20:46;3.30;;;0.70;;
26391;SDS011;14572;43.120;1.178;2024-03-08T03:23:15;3.72;;;1.10;;
26391;SDS011;14572;43.120;1.178;2024-03-08T03:28:29;3.65;;;0.80;;
26391;SDS011;14572;43.120;1.178;2024-03-08T03:30:57;4.72;;;0.80;;
26391;SDS011;14572;43.120;1.178;2024-03-08T03:33:24;5.55;;;1.05;;
26391;SDS011;14572;43.120;1.178;2024-03-08T03:35:59;2.45;;;0.93;;
26391;SDS011;14572;43.120;1.178;2024-03-08T03:38:26;2.88;;;0.80;;
26391;SDS011;14572;43.120;1.178;2024-03-08T03:40:55;3.03;;;1.25;;
26391;SDS011;14572;43.120;1.178;2024-03-08T03:43:33;3.15;;;0.80;;
26391;SDS011;14572;43.120;1.178;2024-03-08T03:46:05;3.03;;;0.70;;
26391;SDS011;14572;43.120;1.178;2024-03-08T03:48:37;1.90;;;0.90;;
26391;SDS011;14572;43.120;1.178;2024-03-08T03:51:04;3.83;;;0.93;;
26391;SDS011;14572;43.120;1.178;2024-03-08T03:53:40;2.53;;;1.00;;
26391;SDS011;14572;43.120;1.178;2024-03-08T03:56:07;4.88;;;1.00;;
26391;SDS011;14572;43.120;1.178;2024-03-08T03:58:41;1.98;;;0.70;;
26391;SDS011;14572;43.120;1.178;2024-03-08T04:01:10;4.03;;;1.35;;
26391;SDS011;14572;43.120;1.178;2024-03-08T04:03:40;3.45;;;0.70;;
26391;SDS011;14572;43.120;1.178;2024-03-08T04:06:08;4.55;;;1.75;;
26391;SDS011;14572;43.120;1.178;2024-03-08T04:08:39;5.80;;;3.38;;
26391;SDS011;14572;43.120;1.178;2024-03-08T04:11:15;5.63;;;2.47;;
26391;SDS011;14572;43.120;1.178;2024-03-08T04:13:45;4.03;;;0.80;;
26391;SDS011;14572;43.120;1.178;2024-03-08T04:16:16;5.60;;;0.80;;
26391;SDS011;14572;43.120;1.178;2024-03-08T04:18:49;4.60;;;0.88;;
26391;SDS011;14572;43.120;1.178;2024-03-08T04:21:18;2.58;;;0.65;;
26391;SDS011;14572;43.120;1.178;2024-03-08T04:23:49;2.78;;;2.58;;
26391;SDS011;14572;43.120;1.178;2024-03-08T04:26:16;3.30;;;2.70;;
26391;SDS011;14572;43.120;1.178;2024-03-08T04:28:43;4.63;;;2.60;;
26391;SDS011;14572;43.120;1.178;2024-03-08T04:31:22;4.35;;;2.20;;
26391;SDS011;14572;43.120;1.178;2024-03-08T04:33:51;3.03;;;2.65;;
26391;SDS011;14572;43.120;1.178;2024-03-08T04:36:18;4.00;;;2.50;;
26391;SDS011;14572;43.120;1.178;2024-03-08T04:38:45;3.95;;;2.25;;
26391;SDS011;14572;43.120;1.178;2024-03-08T04:41:12;2.78;;;2.50;;
26391;SDS011;14572;43.120;1.178;2024-03-08T04:43:41;4.05;;;2.70;;
26391;SDS011;14572;43.120;1.178;2024-03-08T04:46:13;3.50;;;2.40;;
26391;SDS011;14572;43.120;1.178;2024-03-08T04:48:43;2.90;;;2.60;;
26391;SDS011;14572;43.120;1.178;2024-03-08T04:51:12;3.03;;;2.63;;
26391;SDS011;14572;43.120;1.178;2024-03-08T04:53:42;3.35;;;2.70;;
26391;SDS011;14572;43.120;1.178;2024-03-08T04:56:09;4.70;;;2.70;;
26391;SDS011;14572;43.120;1.178;2024-03-08T04:58:37;3.60;;;2.20;;
26391;SDS011;14572;43.120;1.178;2024-03-08T05:01:13;4.07;;;2.60;;
26391;SDS011;14572;43.120;1.178;2024-03-08T05:03:42;4.32;;;2.53;;
26391;SDS011;14572;43.120;1.178;2024-03-08T05:06:09;5.55;;;2.50;;
26391;SDS011;14572;43.120;1.178;2024-03-08T05:08:36;4.25;;;3.00;;
26391;SDS011;14572;43.120;1.178;2024-03-08T05:11:03;2.92;;;2.42;;
26391;SDS011;14572;43.120;1.178;2024-03-08T05:13:41;4.10;;;3.00;;
26391;SDS011;14572;43.120;1.178;2024-03-08T05:16:13;4.10;;;2.83;;
26391;SDS011;14572;43.120;1.178;2024-03-08T05:18:42;3.13;;;2.83;;
26391;SDS011;14572;43.120;1.178;2024-03-08T05:21:12;3.40;;;2.55;;
26391;SDS011;14572;43.120;1.178;2024-03-08T05:23:45;2.92;;;2.30;;
26391;SDS011;14572;43.120;1.178;2024-03-08T05:26:15;2.03;;;1.70;;
26391;SDS011;14572;43.120;1.178;2024-03-08T05:28:42;2.45;;;1.75;;
26391;SDS011;14572;43.120;1.178;2024-03-08T05:31:09;3.85;;;1.20;;
26391;SDS011;14572;43.120;1.178;2024-03-08T05:33:40;2.70;;;1.00;;
26391;SDS011;14572;43.120;1.178;2024-03-08T05:36:13;4.03;;;0.80;;
26391;SDS011;14572;43.120;1.178;2024-03-08T05:38:41;1.52;;;0.63;;
26391;SDS011;14572;43.120;1.178;2024-03-08T05:41:11;5.72;;;1.30;;
26391;SDS011;14572;43.120;1.178;2024-03-08T05:43:40;5.10;;;0.77;;
26391;SDS011;14572;43.120;1.178;2024-03-08T05:46:09;3.20;;;1.20;;
26391;SDS011;14572;43.120;1.178;2024-03-08T05:48:39;5.55;;;1.13;;
26391;SDS011;14572;43.120;1.178;2024-03-08T05:51:09;3.80;;;0.90;;
26391;SDS011;14572;43.120;1.178;2024-03-08T05:53:37;2.00;;;0.90;;
26391;SDS011;14572;43.120;1.178;2024-03-08T05:56:06;4.45;;;0.90;;
26391;SDS011;14572;43.120;1.178;2024-03-08T05:58:38;3.55;;;1.00;;
26391;SDS011;14572;43.120;1.178;2024-03-08T06:01:05;3.30;;;0.90;;
26391;SDS011;14572;43.120;1.178;2024-03-08T06:03:37;4.10;;;1.92;;
26391;SDS011;14572;43.120;1.178;2024-03-08T06:06:17;10.43;;;3.13;;
26391;SDS011;14572;43.120;1.178;2024-03-08T06:08:46;5.85;;;2.40;;
26391;SDS011;14572;43.120;1.178;2024-03-08T06:11:16;6.90;;;2.10;;
26391;SDS011;14572;43.120;1.178;2024-03-08T06:13:44;3.55;;;1.42;;
26391;SDS011;14572;43.120;1.178;2024-03-08T06:16:11;4.05;;;1.20;;
26391;SDS011;14572;43.120;1.178;2024-03-08T06:18:43;2.10;;;0.93;;
26391;SDS011;14572;43.120;1.178;2024-03-08T06:21:13;3.20;;;0.93;;
26391;SDS011;14572;43.120;1.178;2024-03-08T06:23:43;4.43;;;1.27;;
26391;SDS011;14572;43.120;1.178;2024-03-08T06:26:10;4.30;;;1.30;;
26391;SDS011;14572;43.120;1.178;2024-03-08T06:28:38;2.63;;;1.05;;
26391;SDS011;14572;43.120;1.178;2024-03-08T06:31:05;12.35;;;1.45;;
26391;SDS011;14572;43.120;1.178;2024-03-08T06:33:39;2.42;;;1.10;;
26391;SDS011;14572;43.120;1.178;2024-03-08T06:36:06;3.15;;;1.58;;
26391;SDS011;14572;43.120;1.178;2024-03-08T06:38:45;5.97;;;1.35;;
26391;SDS011;14572;43.120;1.178;2024-03-08T06:41:12;4.10;;;1.45;;
26391;SDS011;14572;43.120;1.178;2024-03-08T06:43:43;3.58;;;1.27;;
26391;SDS011;14572;43.120;1.178;2024-03-08T06:46:12;5.50;;;1.52;;
26391;SDS011;14572;43.120;1.178;2024-03-08T06:48:42;5.13;;;1.20;;
26391;SDS011;14572;43.120;1.178;2024-03-08T06:51:16;4.60;;;1.25;;
26391;SDS011;14572;43.120;1.178;2024-03-08T06:53:54;4.80;;;1.30;;
26391;SDS011;14572;43.120;1.178;2024-03-08T06:56:21;3.97;;;1.33;;
26391;SDS011;14572;43.120;1.178;2024-03-08T06:58:48;3.25;;;1.20;;
26391;SDS011;14572;43.120;1.178;2024-03-08T07:01:15;1.67;;;1.00;;
26391;SDS011;14572;43.120;1.178;2024-03-08T07:03:46;3.88;;;1.08;;
26391;SDS011;14572;43.120;1.178;2024-03-08T07:06:14;3.42;;;1.15;;
26391;SDS011;14572;43.120;1.178;2024-03-08T07:08:45;5.60;;;1.40;;
26391;SDS011;14572;43.120;1.178;2024-03-08T07:14:08;1.90;;;1.10;;
26391;SDS011;14572;43.120;1.178;2024-03-08T07:16:36;5.82;;;1.50;;
26391;SDS011;14572;43.120;1.178;2024-03-08T07:19:06;7.45;;;1.92;;
26391;SDS011;14572;43.120;1.178;2024-03-08T07:21:35;3.67;;;1.30;;
26391;SDS011;14572;43.120;1.178;2024-03-08T07:24:04;4.30;;;1.98;;
26391;SDS011;14572;43.120;1.178;2024-03-08T07:26:49;6.00;;;1.45;;
26391;SDS011;14572;43.120;1.178;2024-03-08T07:29:17;5.68;;;1.30;;
26391;SDS011;14572;43.120;1.178;2024-03-08T07:31:44;1.92;;;1.00;;
26391;SDS011;14572;43.120;1.178;2024-03-08T07:34:20;5.38;;;1.52;;
26391;SDS011;14572;43.120;1.178;2024-03-08T07:36:47;3.55;;;1.30;;
26391;SDS011;14572;43.120;1.178;2024-03-08T07:39:16;5.45;;;1.25;;
26391;SDS011;14572;43.120;1.178;2024-03-08T07:41:46;4.43;;;1.55;;
26391;SDS011;14572;43.120;1.178;2024-03-08T07:44:13;3.90;;;1.60;;
26391;SDS011;14572;43.120;1.178;2024-03-08T07:46:41;3.75;;;1.98;;
26391;SDS011;14572;43.120;1.178;2024-03-08T07:49:10;6.05;;;2.40;;
26391;SDS011;14572;43.120;1.178;2024-03-08T07:51:37;7.47;;;3.05;;
26391;SDS011;14572;43.120;1.178;2024-03-08T07:54:04;3.33;;;2.35;;
26391;SDS011;14572;43.120;1.178;2024-03-08T07:56:35;14.70;;;6.40;;
26391;SDS011;14572;43.120;1.178;2024-03-08T07:59:02;12.32;;;4.63;;
26391;SDS011;14572;43.120;1.178;2024-03-08T08:01:30;6.22;;;1.77;;
26391;SDS011;14572;43.120;1.178;2024-03-08T08:03:58;5.93;;;1.60;;
26391;SDS011;14572;43.120;1.178;2024-03-08T08:06:26;5.28;;;1.45;;
26391;SDS011;14572;43.120;1.178;2024-03-08T08:08:57;4.72;;;1.40;;
26391;SDS011;14572;43.120;1.178;2024-03-08T08:11:25;6.65;;;2.28;;
26391;SDS011;14572;43.120;1.178;2024-03-08T08:13:55;9.05;;;2.53;;
26391;SDS011;14572;43.120;1.178;2024-03-08T08:16:22;6.55;;;2.92;;
26391;SDS011;14572;43.120;1.178;2024-03-08T08:18:51;8.38;;;2.85;;
26391;SDS011;14572;43.120;1.178;2024-03-08T08:21:19;6.25;;;2.40;;
26391;SDS011;14572;43.120;1.178;2024-03-08T08:23:47;7.88;;;2.50;;
26391;SDS011;14572;43.120;1.178;2024-03-08T08:26:14;6.53;;;2.83;;
26391;SDS011;14572;43.120;1.178;2024-03-08T08:28:42;7.72;;;2.40;;
26391;SDS011;14572;43.120;1.178;2024-03-08T08:31:12;4.97;;;2.47;;
26391;SDS011;14572;43.120;1.178;2024-03-08T08:33:39;6.60;;;3.03;;
26391;SDS011;14572;43.120;1.178;2024-03-08T08:36:07;6.10;;;2.20;;
26391;SDS011;14572;43.120;1.178;2024-03-08T08:38:35;7.70;;;2.10;;
26391;SDS011;14572;43.120;1.178;2024-03-08T08:41:03;5.63;;;2.38;;
26391;SDS011;14572;43.120;1.178;2024-03-08T08:43:31;4.65;;;2.20;;
26391;SDS011;14572;43.120;1.178;2024-03-08T08:46:00;6.53;;;2.20;;
26391;SDS011;14572;43.120;1.178;2024-03-08T08:48:28;5.30;;;1.95;;
26391;SDS011;14572;43.120;1.178;2024-03-08T08:50:56;6.40;;;2.47;;
26391;SDS011;14572;43.120;1.178;2024-03-08T08:53:24;15.02;;;2.30;;
26391;SDS011;14572;43.120;1.178;2024-03-08T08:55:51;4.63;;;2.05;;
26391;SDS011;14572;43.120;1.178;2024-03-08T08:58:19;4.40;;;2.88;;
26391;SDS011;14572;43.120;1.178;2024-03-08T09:00:47;5.10;;;2.60;;
26391;SDS011;14572;43.120;1.178;2024-03-08T09:03:15;6.60;;;2.47;;
26391;SDS011;14572;43.120;1.178;2024-03-08T09:05:44;7.63;;;2.97;;
26391;SDS011;14572;43.120;1.178;2024-03-08T09:08:11;12.98;;;2.92;;
26391;SDS011;14572;43.120;1.178;2024-03-08T09:10:39;5.20;;;2.30;;
26391;SDS011;14572;43.120;1.178;2024-03-08T09:13:06;6.60;;;2.88;;
26391;SDS011;14572;43.120;1.178;2024-03-08T09:15:35;7.15;;;2.60;;
26391;SDS011;14572;43.120;1.178;2024-03-08T09:18:05;4.63;;;2.00;;
26391;SDS011;14572;43.120;1.178;2024-03-08T09:20:33;6.10;;;2.40;;
26391;SDS011;14572;43.120;1.178;2024-03-08T09:23:03;5.82;;;2.47;;
26391;SDS011;14572;43.120;1.178;2024-03-08T09:25:30;5.07;;;2.00;;
26391;SDS011;14572;43.120;1.178;2024-03-08T09:27:58;7.85;;;2.42;;
26391;SDS011;14572;43.120;1.178;2024-03-08T09:30:25;5.07;;;2.28;;
26391;SDS011;14572;43.120;1.178;2024-03-08T09:32:52;8.35;;;2.30;;
26391;SDS011;14572;43.120;1.178;2024-03-08T09:35:19;5.38;;;2.10;;
26391;SDS011;14572;43.120;1.178;2024-03-08T09:37:46;6.45;;;2.75;;
26391;SDS011;14572;43.120;1.178;2024-03-08T09:40:18;6.38;;;2.72;;
26391;SDS011;14572;43.120;1.178;2024-03-08T09:42:45;4.72;;;2.65;;
26391;SDS011;14572;43.120;1.178;2024-03-08T09:45:13;8.18;;;3.42;;
26391;SDS011;14572;43.120;1.178;2024-03-08T09:47:41;6.20;;;3.40;;
26391;SDS011;14572;43.120;1.178;2024-03-08T09:50:09;5.35;;;3.00;;
26391;SDS011;14572;43.120;1.178;2024-03-08T09:52:38;6.00;;;2.67;;
26391;SDS011;14572;43.120;1.178;2024-03-08T09:55:05;4.22;;;2.70;;
26391;SDS011;14572;43.120;1.178;2024-03-08T09:57:35;6.05;;;2.78;;
26391;SDS011;14572;43.120;1.178;2024-03-08T10:00:03;5.03;;;1.85;;
26391;SDS011;14572;43.120;1.178;2024-03-08T10:02:45;4.20;;;1.88;;
26391;SDS011;14572;43.120;1.178;2024-03-08T10:05:12;4.78;;;2.30;;
26391;SDS011;14572;43.120;1.178;2024-03-08T10:07:39;3.90;;;1.83;;
26391;SDS011;14572;43.120;1.178;2024-03-08T10:10:07;3.92;;;1.67;;
26391;SDS011;14572;43.120;1.178;2024-03-08T10:12:39;3.40;;;1.70;;
26391;SDS011;14572;43.120;1.178;2024-03-08T10:15:06;6.53;;;1.58;;
26391;SDS011;14572;43.120;1.178;2024-03-08T10:17:34;3.10;;;1.88;;
26391;SDS011;14572;43.120;1.178;2024-03-08T10:20:02;4.53;;;1.85;;
26391;SDS011;14572;43.120;1.178;2024-03-08T10:22:40;5.72;;;2.17;;
26391;SDS011;14572;43.120;1.178;2024-03-08T10:25:08;4.95;;;2.45;;
26391;SDS011;14572;43.120;1.178;2024-03-08T10:27:39;8.70;;;2.97;;
26391;SDS011;14572;43.120;1.178;2024-03-08T10:30:06;7.70;;;3.60;;
26391;SDS011;14572;43.120;1.178;2024-03-08T10:32:37;6.25;;;2.97;;
26391;SDS011;14572;43.120;1.178;2024-03-08T10:35:06;4.95;;;2.80;;
26391;SDS011;14572;43.120;1.178;2024-03-08T10:37:35;6.30;;;2.38;;
26391;SDS011;14572;43.120;1.178;2024-03-08T10:40:07;3.40;;;1.90;;
26391;SDS011;14572;43.120;1.178;2024-03-08T10:42:44;1.63;;;1.52;;
26391;SDS011;14572;43.120;1.178;2024-03-08T10:45:19;2.80;;;1.58;;
26391;SDS011;14572;43.120;1.178;2024-03-08T10:47:50;2.17;;;1.50;;
26391;SDS011;14572;43.120;1.178;2024-03-08T10:50:24;3.35;;;2.17;;
26391;SDS011;14572;43.120;1.178;2024-03-08T10:52:52;2.08;;;1.80;;
26391;SDS011;14572;43.120;1.178;2024-03-08T10:55:20;3.67;;;2.75;;
26391;SDS011;14572;43.120;1.178;2024-03-08T10:57:49;2.17;;;1.98;;
26391;SDS011;14572;43.120;1.178;2024-03-08T11:00:16;2.10;;;1.73;;
26391;SDS011;14572;43.120;1.178;2024-03-08T11:02:51;2.72;;;2.20;;
26391;SDS011;14572;43.120;1.178;2024-03-08T11:05:31;2.13;;;1.30;;
26391;SDS011;14572;43.120;1.178;2024-03-08T11:08:00;3.05;;;2.10;;
26391;SDS011;14572;43.120;1.178;2024-03-08T11:10:28;2.35;;;2.15;;
26391;SDS011;14572;43.120;1.178;2024-03-08T11:12:57;2.25;;;2.05;;
26391;SDS011;14572;43.120;1.178;2024-03-08T11:15:24;2.28;;;1.90;;
26391;SDS011;14572;43.120;1.178;2024-03-08T11:17:53;2.95;;;1.95;;
26391;SDS011;14572;43.120;1.178;2024-03-08T11:20:23;2.45;;;2.00;;
26391;SDS011;14572;43.120;1.178;2024-03-08T11:22:52;1.90;;;1.70;;
26391;SDS011;14572;43.120;1.178;2024-03-08T11:28:11;1.83;;;1.60;;
26391;SDS011;14572;43.120;1.178;2024-03-08T11:30:42;1.10;;;1.00;;
26391;SDS011;14572;43.120;1.178;2024-03-08T11:33:15;1.17;;;0.90;;
26391;SDS011;14572;43.120;1.178;2024-03-08T11:35:43;2.20;;;1.10;;
26391;SDS011;14572;43.120;1.178;2024-03-08T11:38:11;0.88;;;0.60;;
26391;SDS011;14572;43.120;1.178;2024-03-08T11:40:41;2.08;;;0.75;;
26391;SDS011;14572;43.120;1.178;2024-03-08T11:43:09;2.13;;;0.50;;
26391;SDS011;14572;43.120;1.178;2024-03-08T11:45:39;0.80;;;0.35;;
26391;SDS011;14572;43.120;1.178;2024-03-08T11:48:06;1.80;;;0.50;;
26391;SDS011;14572;43.120;1.178;2024-03-08T11:50:33;0.77;;;0.50;;
26391;SDS011;14572;43.120;1.178;2024-03-08T11:53:01;1.50;;;0.70;;
26391;SDS011;14572;43.120;1.178;2024-03-08T11:55:29;1.48;;;0.60;;
26391;SDS011;14572;43.120;1.178;2024-03-08T11:58:00;1.10;;;0.50;;
26391;SDS011;14572;43.120;1.178;2024-03-08T12:00:34;0.35;;;0.20;;
26391;SDS011;14572;43.120;1.178;2024-03-08T12:03:03;1.02;;;0.50;;
26391;SDS011;14572;43.120;1.178;2024-03-08T12:05:31;0.50;;;0.40;;
26391;SDS011;14572;43.120;1.178;2024-03-08T12:07:59;0.75;;;0.40;;
26391;SDS011;14572;43.120;1.178;2024-03-08T12:10:27;0.65;;;0.35;;
26391;SDS011;14572;43.120;1.178;2024-03-08T12:12:56;1.30;;;0.63;;
26391;SDS011;14572;43.120;1.178;2024-03-08T12:15:25;1.15;;;0.55;;
26391;SDS011;14572;43.120;1.178;2024-03-08T12:17:54;0.90;;;0.43;;
26391;SDS011;14572;43.120;1.178;2024-03-08T12:20:23;0.60;;;0.43;;
26391;SDS011;14572;43.120;1.178;2024-03-08T12:22:51;1.60;;;0.70;;
26391;SDS011;14572;43.120;1.178;2024-03-08T12:25:22;2.28;;;0.50;;
26391;SDS011;14572;43.120;1.178;2024-03-08T12:27:49;1.40;;;0.40;;
26391;SDS011;14572;43.120;1.178;2024-03-08T12:30:21;0.52;;;0.40;;
26391;SDS011;14572;43.120;1.178;2024-03-08T12:32:50;0.47;;;0.40;;
26391;SDS011;14572;43.120;1.178;2024-03-08T12:35:21;1.85;;;0.75;;
26391;SDS011;14572;43.120;1.178;2024-03-08T12:37:50;1.30;;;0.50;;
26391;SDS011;14572;43.120;1.178;2024-03-08T12:40:18;1.35;;;0.40;;
26391;SDS011;14572;43.120;1.178;2024-03-08T12:42:46;2.80;;;1.45;;
26391;SDS011;14572;43.120;1.178;2024-03-08T12:45:14;0.90;;;0.50;;
26391;SDS011;14572;43.120;1.178;2024-03-08T12:47:41;0.40;;;0.30;;
26391;SDS011;14572;43.120;1.178;2024-03-08T12:50:09;1.30;;;0.40;;
26391;SDS011;14572;43.120;1.178;2024-03-08T12:52:38;0.80;;;0.38;;
26391;SDS011;14572;43.120;1.178;2024-03-08T12:55:06;0.80;;;0.30;;
26391;SDS011;14572;43.120;1.178;2024-03-08T12:57:34;1.20;;;0.30;;
26391;SDS011;14572;43.120;1.178;2024-03-08T13:00:03;3.10;;;0.88;;
26391;SDS011;14572;43.120;1.178;2024-03-08T13:02:38;1.42;;;1.25;;
26391;SDS011;14572;43.120;1.178;2024-03-08T13:05:06;1.60;;;1.00;;
26391;SDS011;14572;43.120;1.178;2024-03-08T13:07:35;2.53;;;2.30;;
26391;SDS011;14572;43.120;1.178;2024-03-08T13:10:05;2.03;;;1.92;;
26391;SDS011;14572;43.120;1.178;2024-03-08T13:12:34;1.90;;;1.80;;
26391;SDS011;14572;43.120;1.178;2024-03-08T13:15:03;1.80;;;1.70;;
26391;SDS011;14572;43.120;1.178;2024-03-08T13:17:31;1.92;;;1.80;;
26391;SDS011;14572;43.120;1.178;2024-03-08T13:19:58;1.80;;;1.70;;
26391;SDS011;14572;43.120;1.178;2024-03-08T13:22:27;4.43;;;2.83;;
26391;SDS011;14572;43.120;1.178;2024-03-08T13:24:54;2.33;;;2.13;;
26391;SDS011;14572;43.120;1.178;2024-03-08T13:27:22;3.95;;;2.85;;
26391;SDS011;14572;43.120;1.178;2024-03-08T13:29:50;2.65;;;2.45;;
26391;SDS011;14572;43.120;1.178;2024-03-08T13:32:17;2.58;;;2.38;;
26391;SDS011;14572;43.120;1.178;2024-03-08T13:34:45;2.50;;;2.30;;
26391;SDS011;14572;43.120;1.178;2024-03-08T13:37:16;3.00;;;2.70;;
26391;SDS011;14572;43.120;1.178;2024-03-08T13:39:43;2.40;;;2.20;;
26391;SDS011;14572;43.120;1.178;2024-03-08T13:42:10;2.28;;;2.10;;
26391;SDS011;14572;43.120;1.178;2024-03-08T13:44:46;10.60;;;3.28;;
26391;SDS011;14572;43.120;1.178;2024-03-08T13:47:13;4.78;;;1.85;;
26391;SDS011;14572;43.120;1.178;2024-03-08T13:49:40;0.80;;;0.80;;
26391;SDS011;14572;43.120;1.178;2024-03-08T13:52:08;3.92;;;1.75;;
26391;SDS011;14572;43.120;1.178;2024-03-08T13:54:36;2.45;;;1.02;;
26391;SDS011;14572;43.120;1.178;2024-03-08T13:57:04;1.67;;;0.70;;
26391;SDS011;14572;43.120;1.178;2024-03-08T13:59:32;0.88;;;0.35;;
26391;SDS011;14572;43.120;1.178;2024-03-08T14:02:02;1.63;;;0.80;;
26391;SDS011;14572;43.120;1.178;2024-03-08T14:04:29;0.77;;;0.57;;
26391;SDS011;14572;43.120;1.178;2024-03-08T14:06:56;0.80;;;0.73;;
26391;SDS011;14572;43.120;1.178;2024-03-08T14:09:28;2.92;;;1.70;;
26391;SDS011;14572;43.120;1.178;2024-03-08T14:11:56;2.25;;;2.05;;
26391;SDS011;14572;43.120;1.178;2024-03-08T14:14:23;3.00;;;2.60;;
26391;SDS011;14572;43.120;1.178;2024-03-08T14:16:51;2.38;;;2.17;;
26391;SDS011;14572;43.120;1.178;2024-03-08T14:19:24;1.90;;;1.80;;
26391;SDS011;14572;43.120;1.178;2024-03-08T14:21:51;2.35;;;2.15;;
26391;SDS011;14572;43.120;1.178;2024-03-08T14:24:19;3.25;;;2.72;;
26391;SDS011;14572;43.120;1.178;2024-03-08T14:26:46;3.38;;;2.70;;
26391;SDS011;14572;43.120;1.178;2024-03-08T14:29:14;2.10;;;2.00;;
26391;SDS011;14572;43.120;1.178;2024-03-08T14:31:41;2.08;;;1.98;;
26391;SDS011;14572;43.120;1.178;2024-03-08T14:34:08;2.10;;;1.92;;
26391;SDS011;14572;43.120;1.178;2024-03-08T14:36:37;2.00;;;1.80;;
26391;SDS011;14572;43.120;1.178;2024-03-08T14:39:04;4.90;;;3.30;;
26391;SDS011;14572;43.120;1.178;2024-03-08T14:41:32;1.80;;;1.70;;
26391;SDS011;14572;43.120;1.178;2024-03-08T14:43:59;1.90;;;1.80;;
26391;SDS011;14572;43.120;1.178;2024-03-08T14:46:27;1.85;;;1.60;;
26391;SDS011;14572;43.120;1.178;2024-03-08T14:48:54;1.90;;;1.80;;
26391;SDS011;14572;43.120;1.178;2024-03-08T14:51:22;4.70;;;2.70;;
26391;SDS011;14572;43.120;1.178;2024-03-08T14:53:53;12.48;;;7.68;;
26391;SDS011;14572;43.120;1.178;2024-03-08T14:56:20;4.95;;;2.70;;
26391;SDS011;14572;43.120;1.178;2024-03-08T14:58:48;3.72;;;2.58;;
26391;SDS011;14572;43.120;1.178;2024-03-08T15:01:16;2.00;;;1.90;;
26391;SDS011;14572;43.120;1.178;2024-03-08T15:03:47;3.10;;;2.22;;
26391;SDS011;14572;43.120;1.178;2024-03-08T15:06:14;2.38;;;1.98;;
26391;SDS011;14572;43.120;1.178;2024-03-08T15:08:45;2.33;;;2.08;;
26391;SDS011;14572;43.120;1.178;2024-03-08T15:11:13;2.90;;;2.55;;